Time;durP1;ratioP1;P1;durP2;ratioP2;P2;SDS_P1;SDS_P2;PMS_P1;PMS_P2;Temp;Humidity;BMP_temperature;BMP_pressure;BME280_temperature;BME280_humidity;BME280_pressure;Samples;Min_cycle;Max_cycle;Signal;HPM_P1;HPM_P2
2023/05/12 00:01:00;;;;;;;12.18;9.68;;;28.30;99.90;;;;;;1918960;74;21425;-84
2023/05/12 00:03:31;;;;;;;15.08;10.72;;;28.30;99.90;;;;;;1905481;74;21129;-86
2023/05/12 00:06:03;;;;;;;12.33;8.60;;;28.30;99.90;;;;;;1914074;74;21252;-87
2023/05/12 00:08:34;;;;;;;12.82;10.23;;;28.30;99.90;;;;;;1903935;74;21167;-85
2023/05/12 00:11:05;;;;;;;16.75;11.08;;;28.40;99.90;;;;;;1912000;74;21603;-86
2023/05/12 00:13:36;;;;;;;17.10;11.35;;;28.40;99.90;;;;;;1906791;74;21568;-86
2023/05/12 00:16:07;;;;;;;14.65;9.98;;;28.40;99.90;;;;;;1911440;74;21092;-86
2023/05/12 00:18:38;;;;;;;16.57;12.58;;;28.50;99.90;;;;;;1904276;74;21611;-87
2023/05/12 00:21:14;;;;;;;20.30;12.82;;;28.50;99.90;;;;;;1873953;76;21523;-87
2023/05/12 00:23:44;;;;;;;14.73;11.50;;;28.60;99.90;;;;;;1856487;76;21101;-86
2023/05/12 00:26:16;;;;;;;13.13;9.18;;;28.60;99.90;;;;;;1854721;76;21177;-86
2023/05/12 00:28:47;;;;;;;12.37;9.13;;;28.60;99.90;;;;;;1860292;76;21218;-85
2023/05/12 00:31:18;;;;;;;13.72;9.18;;;28.60;99.90;;;;;;1855266;76;21563;-85
2023/05/12 00:33:49;;;;;;;12.65;9.50;;;28.60;99.90;;;;;;1910146;74;21222;-86
2023/05/12 00:36:21;;;;;;;13.58;10.60;;;28.70;99.90;;;;;;1916190;74;21127;-86
2023/05/12 00:38:52;;;;;;;13.18;9.70;;;28.70;99.90;;;;;;1906057;74;21121;-86
2023/05/12 00:41:23;;;;;;;21.57;9.80;;;28.80;99.90;;;;;;1913961;74;21133;-86
2023/05/12 00:43:55;;;;;;;12.07;9.58;;;28.80;99.90;;;;;;1909679;74;21199;-85
2023/05/12 00:46:29;;;;;;;12.37;9.25;;;28.90;99.90;;;;;;1924906;74;21126;-87
2023/05/12 00:49:00;;;;;;;15.50;9.68;;;28.90;99.90;;;;;;1915217;74;21084;-81
2023/05/12 00:51:32;;;;;;;13.45;10.13;;;28.90;99.90;;;;;;1908949;74;21147;-80
2023/05/12 00:54:03;;;;;;;13.53;10.08;;;28.90;99.90;;;;;;1912410;74;21041;-79
2023/05/12 00:56:38;;;;;;;16.20;9.68;;;29.00;99.90;;;;;;1907534;74;21181;-77
2023/05/12 00:59:07;;;;;;;11.45;9.10;;;29.00;99.90;;;;;;1890222;74;21086;-78
2023/05/12 01:01:39;;;;;;;13.88;9.53;;;29.10;99.90;;;;;;1880582;75;21565;-76
2023/05/12 01:04:13;;;;;;;11.73;8.85;;;29.10;99.90;;;;;;1889416;75;21121;-74
2023/05/12 01:06:51;;;;;;;13.70;9.90;;;29.10;99.90;;;;;;1874867;75;21136;-78
2023/05/12 01:09:26;;;;;;;14.60;8.85;;;29.20;99.90;;;;;;1806734;78;21176;-78
2023/05/12 01:11:58;;;;;;;12.23;9.75;;;29.20;99.90;;;;;;1897111;75;21093;-79
2023/05/12 01:14:29;;;;;;;15.83;10.82;;;29.30;99.90;;;;;;1901602;75;21117;-78
2023/05/12 01:17:02;;;;;;;15.75;10.53;;;29.30;99.90;;;;;;1903159;75;21151;-79
2023/05/12 01:19:51;;;;;;;13.38;11.15;;;29.40;99.90;;;;;;1901967;75;21131;-76
2023/05/12 01:22:22;;;;;;;14.20;10.93;;;29.40;99.90;;;;;;1887867;75;21105;-76
2023/05/12 01:24:59;;;;;;;14.28;10.05;;;29.50;99.90;;;;;;1882796;75;21132;-77
2023/05/12 01:27:31;;;;;;;14.80;10.43;;;29.50;99.90;;;;;;1877412;75;21085;-76
2023/05/12 01:30:03;;;;;;;14.30;9.90;;;29.60;99.90;;;;;;1881331;75;21644;-77
2023/05/12 01:32:35;;;;;;;13.88;9.98;;;29.60;99.90;;;;;;1884631;75;21168;-78
2023/05/12 01:35:07;;;;;;;11.73;8.63;;;29.60;99.90;;;;;;1886031;75;21206;-79
2023/05/12 01:37:38;;;;;;;13.08;9.23;;;29.60;99.90;;;;;;1884974;75;21140;-76
2023/05/12 01:40:10;;;;;;;11.30;9.63;;;29.70;99.90;;;;;;1890145;75;21133;-79
2023/05/12 01:42:42;;;;;;;12.15;9.90;;;29.70;99.90;;;;;;1888424;75;21117;-78
2023/05/12 01:45:13;;;;;;;13.30;9.58;;;29.70;99.90;;;;;;1886663;75;21708;-78
2023/05/12 01:47:47;;;;;;;13.72;9.65;;;29.80;99.90;;;;;;1879940;75;21185;-80
2023/05/12 01:50:18;;;;;;;13.75;9.78;;;29.90;99.90;;;;;;1888507;75;21142;-82
2023/05/12 01:52:50;;;;;;;14.50;9.90;;;29.90;99.90;;;;;;1903314;74;21061;-81
2023/05/12 01:55:22;;;;;;;12.05;9.85;;;30.00;99.90;;;;;;1884161;75;21177;-80
2023/05/12 01:57:56;;;;;;;11.18;9.08;;;30.00;99.90;;;;;;1894305;75;21242;-77
2023/05/12 02:00:28;;;;;;;12.03;9.10;;;30.10;99.90;;;;;;1886271;74;21218;-77
2023/05/12 02:02:59;;;;;;;12.47;9.00;;;30.20;99.90;;;;;;1886279;75;21136;-76
2023/05/12 02:05:31;;;;;;;10.13;8.63;;;30.30;99.90;;;;;;1890680;75;21108;-77
2023/05/12 02:08:03;;;;;;;13.05;8.93;;;30.30;99.90;;;;;;1882937;75;21546;-76
2023/05/12 02:10:34;;;;;;;11.48;8.80;;;30.40;99.90;;;;;;1885757;75;21067;-77
2023/05/12 02:13:05;;;;;;;12.00;9.73;;;30.50;99.90;;;;;;1884159;75;21218;-75
2023/05/12 02:15:36;;;;;;;13.25;10.15;;;30.70;99.90;;;;;;1888095;75;21083;-76
2023/05/12 02:18:06;;;;;;;14.90;8.68;;;30.80;99.90;;;;;;1886993;75;21140;-76
2023/05/12 02:20:38;;;;;;;11.53;8.15;;;30.90;99.90;;;;;;1883556;75;21124;-78
2023/05/12 02:23:09;;;;;;;10.15;7.92;;;30.90;99.90;;;;;;1883558;75;21590;-76
2023/05/12 02:25:39;;;;;;;10.63;8.28;;;30.90;99.90;;;;;;1848588;77;21578;-77
2023/05/12 02:28:11;;;;;;;9.70;8.23;;;30.80;99.90;;;;;;1890251;75;21199;-77
2023/05/12 02:30:47;;;;;;;9.05;7.55;;;30.80;99.90;;;;;;1886649;75;21128;-77
2023/05/12 02:33:20;;;;;;;10.15;8.28;;;30.80;99.90;;;;;;1886292;75;21140;-77
2023/05/12 02:35:51;;;;;;;11.03;9.03;;;30.70;99.90;;;;;;1889530;75;22496;-78
2023/05/12 02:38:23;;;;;;;10.18;8.50;;;30.70;99.90;;;;;;1888094;75;21161;-77
2023/05/12 02:40:55;;;;;;;10.78;8.10;;;30.70;99.90;;;;;;1890318;75;21070;-78
2023/05/12 02:43:26;;;;;;;10.80;8.43;;;30.70;99.90;;;;;;1888998;75;21227;-76
2023/05/12 02:45:57;;;;;;;11.60;9.00;;;30.60;99.90;;;;;;1891846;75;21584;-76
2023/05/12 02:48:28;;;;;;;11.05;9.35;;;30.50;99.90;;;;;;1891422;75;21856;-76
2023/05/12 02:50:59;;;;;;;10.78;8.05;;;30.50;99.90;;;;;;1885428;75;21082;-76
2023/05/12 02:53:30;;;;;;;13.18;9.13;;;30.60;99.90;;;;;;1885961;75;21816;-74
2023/05/12 02:56:04;;;;;;;11.63;9.85;;;30.60;99.90;;;;;;1890958;75;21183;-75
2023/05/12 02:58:36;;;;;;;16.07;10.45;;;30.70;99.90;;;;;;1890133;74;21136;-75
2023/05/12 03:01:08;;;;;;;12.30;8.88;;;30.70;99.90;;;;;;1901228;74;21209;-75
2023/05/12 03:03:40;;;;;;;9.35;8.38;;;30.70;99.90;;;;;;1909617;74;21533;-76
2023/05/12 03:06:18;;;;;;;10.78;9.50;;;30.70;99.90;;;;;;1902655;74;21501;-74
2023/05/12 03:08:54;;;;;;;10.30;9.08;;;30.70;99.90;;;;;;1911549;74;21614;-76
2023/05/12 03:11:25;;;;;;;12.60;8.75;;;30.90;99.90;;;;;;1902404;74;21080;-76
2023/05/12 03:13:56;;;;;;;12.25;8.78;;;31.20;99.90;;;;;;1909426;74;21147;-76
2023/05/12 03:16:27;;;;;;;12.78;8.98;;;31.50;99.90;;;;;;1896497;74;21428;-73
2023/05/12 03:18:58;;;;;;;11.88;8.90;;;31.60;99.90;;;;;;1912086;74;21148;-74
2023/05/12 03:21:29;;;;;;;11.75;9.13;;;31.60;99.40;;;;;;1913252;74;21131;-76
2023/05/12 03:24:00;;;;;;;13.93;8.90;;;31.50;99.60;;;;;;1904385;74;21183;-76
2023/05/12 03:26:31;;;;;;;13.28;9.18;;;31.40;99.50;;;;;;1904365;74;21178;-76
2023/05/12 03:29:03;;;;;;;11.55;9.48;;;31.40;99.60;;;;;;1912216;74;21119;-77
2023/05/12 03:31:34;;;;;;;12.35;9.30;;;31.30;99.90;;;;;;1906511;74;21139;-76
2023/05/12 03:34:06;;;;;;;10.50;9.08;;;31.30;99.90;;;;;;1910645;74;21207;-75
2023/05/12 03:36:37;;;;;;;10.65;8.85;;;31.30;99.70;;;;;;1846335;77;21733;-77
2023/05/12 03:39:08;;;;;;;9.20;8.20;;;31.30;99.70;;;;;;1854650;76;21606;-75
2023/05/12 03:41:39;;;;;;;9.80;8.40;;;31.40;99.20;;;;;;1897788;74;21064;-74
2023/05/12 03:44:11;;;;;;;12.93;8.80;;;31.50;98.70;;;;;;1909508;74;21123;-74
2023/05/12 03:46:42;;;;;;;9.70;8.03;;;31.70;98.60;;;;;;1914117;74;21073;-76
2023/05/12 03:49:14;;;;;;;10.30;8.40;;;31.90;98.70;;;;;;1924841;74;21661;-76
2023/05/12 03:51:45;;;;;;;12.70;9.03;;;32.10;98.40;;;;;;1905295;74;21144;-75
2023/05/12 03:54:16;;;;;;;12.05;9.20;;;32.20;98.00;;;;;;1907505;74;21692;-75
2023/05/12 03:56:47;;;;;;;11.25;9.20;;;32.30;97.90;;;;;;1903769;74;21092;-73
2023/05/12 03:59:18;;;;;;;10.03;8.75;;;32.20;97.80;;;;;;1903048;74;21129;-75
2023/05/12 04:01:50;;;;;;;9.50;8.08;;;32.10;97.70;;;;;;1881245;75;21687;-76
2023/05/12 04:04:28;;;;;;;13.65;9.10;;;32.00;97.70;;;;;;1885260;75;21118;-76
2023/05/12 04:07:00;;;;;;;13.08;9.28;;;31.90;98.10;;;;;;1891415;75;21188;-75
2023/05/12 04:09:32;;;;;;;11.73;8.75;;;31.70;98.30;;;;;;1888148;75;21187;-75
2023/05/12 04:12:03;;;;;;;10.72;8.40;;;31.70;98.50;;;;;;1886784;74;21117;-77
2023/05/12 04:14:34;;;;;;;10.53;8.10;;;31.50;98.60;;;;;;1877383;75;21140;-74
2023/05/12 04:17:10;;;;;;;10.30;8.18;;;31.40;98.00;;;;;;1874420;75;21131;-75
2023/05/12 04:19:41;;;;;;;8.28;6.53;;;31.30;98.20;;;;;;1889669;75;21209;-74
2023/05/12 04:22:12;;;;;;;10.98;7.78;;;31.10;97.40;;;;;;1888504;75;21097;-76
2023/05/12 04:24:43;;;;;;;10.78;8.35;;;30.90;98.20;;;;;;1887376;75;21226;-75
2023/05/12 04:27:14;;;;;;;11.65;9.13;;;30.80;99.30;;;;;;1884508;75;21222;-74
2023/05/12 04:29:47;;;;;;;9.53;7.50;;;30.60;99.90;;;;;;1889864;75;21530;-76
2023/05/12 04:32:18;;;;;;;9.75;7.35;;;30.50;99.10;;;;;;1899659;75;21124;-74
2023/05/12 04:34:50;;;;;;;8.80;6.00;;;30.30;99.60;;;;;;1892430;74;21514;-73
2023/05/12 04:37:21;;;;;;;13.93;6.70;;;30.00;99.60;;;;;;1895232;74;21152;-75
2023/05/12 04:39:52;;;;;;;13.28;5.05;;;29.80;99.90;;;;;;1908721;74;21093;-75
2023/05/12 04:42:23;;;;;;;8.30;4.62;;;29.60;99.90;;;;;;1894547;75;21560;-76
2023/05/12 04:44:55;;;;;;;8.90;3.98;;;29.30;99.90;;;;;;1874126;75;21426;-77
2023/05/12 04:47:26;;;;;;;7.00;4.58;;;29.10;99.90;;;;;;1881329;75;21077;-76
2023/05/12 04:49:57;;;;;;;8.90;5.45;;;28.90;99.90;;;;;;1874775;75;21131;-75
2023/05/12 04:52:28;;;;;;;8.15;4.83;;;28.70;99.90;;;;;;1879332;75;21206;-74
2023/05/12 04:54:59;;;;;;;6.87;4.15;;;28.60;99.90;;;;;;1893378;75;21240;-75
2023/05/12 04:57:30;;;;;;;7.87;5.62;;;28.60;99.90;;;;;;1885023;75;21121;-74
2023/05/12 05:00:04;;;;;;;11.78;8.13;;;28.50;99.90;;;;;;1887462;75;21588;-76
2023/05/12 05:05:26;;;;;;;13.83;10.13;;;28.50;99.90;;;;;;1915346;75;21148;-75
2023/05/12 05:07:57;;;;;;;16.60;9.70;;;28.60;99.90;;;;;;1851957;76;21540;-76
2023/05/12 05:10:28;;;;;;;15.83;9.88;;;28.70;99.90;;;;;;1819820;77;21695;-78
2023/05/12 05:12:59;;;;;;;13.13;10.50;;;28.70;99.90;;;;;;1833202;78;21153;-75
2023/05/12 05:15:30;;;;;;;13.78;10.25;;;28.80;99.90;;;;;;1836678;78;21589;-75
2023/05/12 05:18:02;;;;;;;11.12;9.10;;;28.90;99.90;;;;;;1807421;77;21188;-76
2023/05/12 05:20:33;;;;;;;10.68;9.58;;;28.90;99.90;;;;;;1836529;77;21542;-77
2023/05/12 05:23:04;;;;;;;13.25;9.83;;;28.90;99.90;;;;;;1846229;77;21120;-77
2023/05/12 05:25:36;;;;;;;12.90;10.45;;;28.90;99.90;;;;;;1851374;76;21093;-75
2023/05/12 05:28:07;;;;;;;10.48;8.90;;;29.00;99.90;;;;;;1849837;76;21625;-76
2023/05/12 05:30:39;;;;;;;9.53;7.55;;;28.90;99.90;;;;;;1907009;75;21112;-76
2023/05/12 05:33:11;;;;;;;9.63;7.17;;;28.90;99.90;;;;;;1867078;76;21139;-76
2023/05/12 05:35:42;;;;;;;10.85;6.70;;;28.90;99.90;;;;;;1832742;77;21180;-75
2023/05/12 05:38:16;;;;;;;8.70;5.72;;;28.80;99.90;;;;;;1829010;77;21625;-77
2023/05/12 05:40:47;;;;;;;7.35;5.20;;;28.70;99.90;;;;;;1847445;76;21138;-77
2023/05/12 05:43:20;;;;;;;7.33;4.47;;;28.60;99.90;;;;;;1841335;76;21072;-76
2023/05/12 05:46:11;;;;;;;5.12;3.22;;;28.60;99.90;;;;;;1825615;77;21152;-77
2023/05/12 05:48:43;;;;;;;7.45;3.62;;;28.40;99.90;;;;;;1887608;75;21094;-75
2023/05/12 05:51:14;;;;;;;7.60;3.75;;;28.30;99.90;;;;;;1834734;77;21087;-78
2023/05/12 05:53:45;;;;;;;7.42;4.47;;;28.20;99.90;;;;;;1835263;76;21190;-78
2023/05/12 05:56:16;;;;;;;5.97;4.20;;;28.10;99.90;;;;;;1826799;78;21283;-77
2023/05/12 05:58:48;;;;;;;6.12;4.35;;;28.00;99.90;;;;;;1875215;75;21503;-77
2023/05/12 06:01:19;;;;;;;6.75;4.08;;;27.90;99.90;;;;;;1804368;78;21197;-76
2023/05/12 06:03:52;;;;;;;4.60;3.80;;;27.80;99.90;;;;;;1874442;76;21145;-76
2023/05/12 06:06:23;;;;;;;6.12;3.95;;;27.80;99.90;;;;;;1828765;76;22131;-77
2023/05/12 06:08:54;;;;;;;4.03;2.98;;;27.70;99.90;;;;;;1873983;75;21125;-80
2023/05/12 06:11:29;;;;;;;5.28;3.47;;;27.60;99.90;;;;;;1835687;77;21198;-76
2023/05/12 06:14:01;;;;;;;5.20;4.35;;;27.50;99.90;;;;;;1871410;75;21223;-78
2023/05/12 06:16:32;;;;;;;6.67;4.28;;;27.40;99.90;;;;;;1836724;76;21173;-75
2023/05/12 06:19:03;;;;;;;9.13;5.10;;;27.40;99.90;;;;;;1871566;75;21113;-79
2023/05/12 06:21:37;;;;;;;6.87;4.58;;;27.30;99.90;;;;;;1824931;76;21165;-79
2023/05/12 06:24:08;;;;;;;9.85;4.22;;;27.30;99.90;;;;;;1796462;79;21131;-78
2023/05/12 06:26:39;;;;;;;5.00;4.08;;;27.20;99.90;;;;;;1877256;75;21101;-77
2023/05/12 06:29:11;;;;;;;12.35;10.00;;;27.20;99.90;;;;;;1805390;78;21152;-78
2023/05/12 06:31:42;;;;;;;13.70;5.83;;;27.20;99.90;;;;;;1878357;75;21110;-77
2023/05/12 06:34:14;;;;;;;26.82;7.05;;;27.20;99.90;;;;;;1798567;78;21233;-75
2023/05/12 06:36:46;;;;;;;17.32;5.83;;;27.20;99.90;;;;;;1880474;75;21716;-75
2023/05/12 06:39:17;;;;;;;7.00;4.80;;;27.20;99.90;;;;;;1803211;78;21298;-75
2023/05/12 06:41:48;;;;;;;6.60;5.00;;;27.20;99.90;;;;;;1874283;75;21539;-76
2023/05/12 06:44:19;;;;;;;10.25;5.65;;;27.20;99.90;;;;;;1806992;78;21142;-76
2023/05/12 06:46:51;;;;;;;6.62;5.83;;;27.30;99.90;;;;;;1877844;75;21139;-76
2023/05/12 06:49:22;;;;;;;9.45;5.50;;;27.40;99.90;;;;;;1852467;76;21838;-74
2023/05/12 06:51:53;;;;;;;11.93;5.85;;;27.40;99.90;;;;;;1887275;75;21083;-74
2023/05/12 06:54:24;;;;;;;8.18;5.22;;;27.40;99.90;;;;;;1855686;76;21119;-75
2023/05/12 06:56:55;;;;;;;7.58;5.35;;;27.40;99.90;;;;;;1815473;77;21130;-76
2023/05/12 06:59:26;;;;;;;10.15;5.08;;;27.40;99.90;;;;;;1857821;76;21177;-76
2023/05/12 07:01:57;;;;;;;8.28;4.65;;;27.40;99.90;;;;;;1883070;76;21154;-76
2023/05/12 07:04:35;;;;;;;10.20;5.08;;;27.40;99.90;;;;;;1884092;75;21436;-74
2023/05/12 07:07:07;;;;;;;12.78;5.60;;;27.40;99.90;;;;;;1801127;79;21823;-77
2023/05/12 07:09:40;;;;;;;6.10;4.28;;;27.40;99.90;;;;;;1885926;75;21099;-77
2023/05/12 07:12:11;;;;;;;9.08;5.15;;;27.40;99.90;;;;;;1803223;79;21606;-76
2023/05/12 07:14:42;;;;;;;10.82;5.53;;;27.30;99.90;;;;;;1853175;76;21154;-76
2023/05/12 07:17:13;;;;;;;9.43;4.72;;;27.30;99.90;;;;;;1889109;74;21165;-77
2023/05/12 07:19:44;;;;;;;6.05;4.00;;;27.20;99.90;;;;;;1849800;76;21206;-77
2023/05/12 07:22:16;;;;;;;8.03;3.85;;;27.20;99.90;;;;;;1883259;74;21122;-77
2023/05/12 07:24:47;;;;;;;7.80;3.98;;;27.20;99.90;;;;;;1844371;76;21614;-76
2023/05/12 07:27:18;;;;;;;6.35;4.40;;;27.10;99.90;;;;;;1840143;76;21153;-76
2023/05/12 07:29:50;;;;;;;8.10;4.85;;;27.20;99.90;;;;;;1885495;74;21180;-75
2023/05/12 07:32:21;;;;;;;10.13;5.37;;;27.20;99.90;;;;;;1851668;76;21217;-75
2023/05/12 07:34:52;;;;;;;9.05;5.20;;;27.10;99.90;;;;;;1886454;74;21586;-77
2023/05/12 07:37:24;;;;;;;10.38;5.87;;;27.10;99.90;;;;;;1860102;76;21639;-78
2023/05/12 07:39:55;;;;;;;9.83;5.60;;;27.10;99.90;;;;;;1848931;76;21161;-78
2023/05/12 07:42:26;;;;;;;8.13;5.08;;;27.10;99.90;;;;;;1834551;76;21515;-77
2023/05/12 07:44:58;;;;;;;8.98;5.67;;;27.10;99.90;;;;;;1839702;77;21225;-78
2023/05/12 07:47:29;;;;;;;7.37;5.70;;;27.10;99.90;;;;;;1839501;76;21541;-76
2023/05/12 07:50:01;;;;;;;12.60;6.33;;;27.20;99.90;;;;;;1831072;77;21232;-76
2023/05/12 07:52:32;;;;;;;8.15;5.70;;;27.20;99.90;;;;;;1826707;78;21568;-76
2023/05/12 07:55:03;;;;;;;7.40;4.12;;;27.30;99.90;;;;;;1824276;77;21709;-77
2023/05/12 07:57:34;;;;;;;9.63;4.58;;;27.30;99.90;;;;;;1860744;77;21127;-75
2023/05/12 08:00:06;;;;;;;7.70;4.25;;;27.20;99.90;;;;;;1824159;77;21246;-76
2023/05/12 08:02:38;;;;;;;6.90;4.00;;;27.20;99.90;;;;;;1829522;76;21162;-77
2023/05/12 08:05:13;;;;;;;7.58;4.25;;;27.20;99.90;;;;;;1826578;77;21164;-76
2023/05/12 08:07:45;;;;;;;7.37;4.10;;;27.10;99.90;;;;;;1879422;76;21144;-76
2023/05/12 08:10:20;;;;;;;9.00;4.78;;;27.10;99.90;;;;;;1847602;76;21158;-78
2023/05/12 08:12:52;;;;;;;6.67;4.28;;;27.10;99.90;;;;;;1883339;76;21236;-77
2023/05/12 08:15:23;;;;;;;8.28;5.08;;;27.10;99.90;;;;;;1879328;75;21083;-76
2023/05/12 08:17:55;;;;;;;8.75;5.10;;;27.10;99.90;;;;;;1849902;76;21241;-76
2023/05/12 08:20:26;;;;;;;6.62;4.90;;;27.00;99.90;;;;;;1839959;76;21155;-77
2023/05/12 08:22:58;;;;;;;6.90;4.92;;;27.10;99.90;;;;;;1860113;77;21151;-76
2023/05/12 08:25:29;;;;;;;5.05;4.50;;;27.00;99.90;;;;;;1861633;75;21139;-76
2023/05/12 08:28:00;;;;;;;5.30;4.00;;;27.00;99.90;;;;;;1861295;76;21186;-76
2023/05/12 08:30:31;;;;;;;6.85;4.50;;;27.00;99.90;;;;;;1860883;75;21222;-77
2023/05/12 08:33:03;;;;;;;8.90;4.78;;;27.00;99.90;;;;;;1859938;77;21138;-75
2023/05/12 08:35:40;;;;;;;7.33;4.50;;;27.00;99.90;;;;;;1871811;75;21068;-77
2023/05/12 08:38:12;;;;;;;10.18;5.35;;;27.00;99.90;;;;;;1862933;75;21179;-77
2023/05/12 08:40:57;;;;;;;11.45;4.80;;;27.00;99.90;;;;;;1861537;75;21115;-76
2023/05/12 08:43:30;;;;;;;6.45;4.55;;;27.00;99.90;;;;;;1860054;76;21595;-75
2023/05/12 08:46:02;;;;;;;10.25;4.53;;;27.10;99.90;;;;;;1862275;75;21075;-75
2023/05/12 08:48:35;;;;;;;6.22;5.00;;;27.00;99.90;;;;;;1879913;74;21217;-76
2023/05/12 08:51:11;;;;;;;8.13;5.08;;;27.00;99.90;;;;;;1864804;76;21236;-77
2023/05/12 08:53:45;;;;;;;10.18;6.90;;;27.10;99.90;;;;;;1864322;76;21157;-77
2023/05/12 08:56:19;;;;;;;7.97;5.92;;;27.10;99.90;;;;;;1860425;76;21575;-76
2023/05/12 08:58:53;;;;;;;8.90;5.25;;;27.10;99.90;;;;;;1882554;74;21127;-76
2023/05/12 09:01:24;;;;;;;7.03;4.65;;;27.10;99.90;;;;;;1860170;76;21142;-75
2023/05/12 09:03:56;;;;;;;7.22;4.58;;;27.20;99.90;;;;;;1887782;76;21072;-75
2023/05/12 09:06:28;;;;;;;8.73;5.20;;;27.20;99.90;;;;;;1860833;76;21241;-73
2023/05/12 09:08:59;;;;;;;10.93;5.42;;;27.20;99.90;;;;;;1862977;76;21532;-76
2023/05/12 09:11:30;;;;;;;14.00;9.08;;;27.20;99.90;;;;;;1892914;74;21658;-76
2023/05/12 09:14:06;;;;;;;8.15;6.33;;;27.20;99.90;;;;;;1893397;76;21212;-77
2023/05/12 09:16:42;;;;;;;10.90;7.50;;;27.20;99.90;;;;;;1812339;79;21190;-77
2023/05/12 09:19:15;;;;;;;6.60;4.90;;;27.20;99.90;;;;;;1886617;76;21149;-76
2023/05/12 09:21:46;;;;;;;6.72;4.95;;;27.30;99.90;;;;;;1818856;78;21164;-76
2023/05/12 09:24:21;;;;;;;13.93;10.98;;;27.30;99.90;;;;;;1892893;76;21095;-73
2023/05/12 09:26:54;;;;;;;12.93;10.82;;;27.30;99.90;;;;;;1817585;79;21135;-75
2023/05/12 09:29:27;;;;;;;11.75;6.50;;;27.30;99.90;;;;;;1886527;76;21080;-77
2023/05/12 09:32:06;;;;;;;11.85;8.13;;;27.30;99.90;;;;;;1816221;79;21116;-76
2023/05/12 09:34:39;;;;;;;8.53;6.40;;;27.40;99.90;;;;;;1887956;76;21114;-76
2023/05/12 09:37:12;;;;;;;10.80;5.65;;;27.40;99.90;;;;;;1817963;79;21156;-74
2023/05/12 09:39:45;;;;;;;6.40;4.97;;;27.40;99.90;;;;;;1890440;75;21114;-76
2023/05/12 09:42:16;;;;;;;6.50;5.15;;;27.40;99.90;;;;;;1818524;79;21276;-75
2023/05/12 09:44:48;;;;;;;9.95;4.92;;;27.50;99.90;;;;;;1890461;74;21649;-77
2023/05/12 09:47:19;;;;;;;22.55;14.35;;;27.40;99.90;;;;;;1815577;77;21265;-73
2023/05/12 09:49:52;;;;;;;11.20;7.20;;;27.40;99.90;;;;;;1841576;76;21157;-74
2023/05/12 09:52:23;;;;;;;19.40;14.55;;;27.40;99.90;;;;;;1877186;75;21122;-75
2023/05/12 09:54:54;;;;;;;9.08;5.85;;;27.40;99.90;;;;;;1875053;75;21168;-76
2023/05/12 09:57:26;;;;;;;10.63;5.00;;;27.40;99.90;;;;;;1875244;75;21189;-76
2023/05/12 09:59:57;;;;;;;10.03;5.87;;;27.40;99.90;;;;;;1874941;75;21177;-75
2023/05/12 10:02:28;;;;;;;8.48;6.58;;;27.50;99.90;;;;;;1875100;75;21051;-76
2023/05/12 10:05:02;;;;;;;6.75;5.72;;;27.50;99.90;;;;;;1874305;75;21268;-75
2023/05/12 10:07:34;;;;;;;8.73;5.45;;;27.40;99.90;;;;;;1876140;75;21138;-76
2023/05/12 10:10:06;;;;;;;11.60;6.25;;;27.50;99.90;;;;;;1871034;75;21635;-76
2023/05/12 10:12:38;;;;;;;8.03;5.10;;;27.50;99.90;;;;;;1875478;75;21185;-74
2023/05/12 10:15:11;;;;;;;9.58;5.10;;;27.50;99.90;;;;;;1876805;75;21113;-76
2023/05/12 10:17:44;;;;;;;7.33;5.00;;;27.50;99.90;;;;;;1872836;75;21157;-77
2023/05/12 10:20:16;;;;;;;8.03;5.50;;;27.50;99.90;;;;;;1875591;75;21188;-76
2023/05/12 10:22:48;;;;;;;6.30;5.15;;;27.50;99.90;;;;;;1871652;76;21149;-76
2023/05/12 10:25:20;;;;;;;8.98;5.15;;;27.40;99.90;;;;;;1874859;75;21141;-75
2023/05/12 10:27:52;;;;;;;7.20;5.20;;;27.40;99.90;;;;;;1804823;79;21134;-77
2023/05/12 10:30:24;;;;;;;10.18;5.20;;;27.40;99.90;;;;;;1875295;75;21603;-76
2023/05/12 10:32:58;;;;;;;10.82;5.30;;;27.40;99.90;;;;;;1875298;75;21079;-76
2023/05/12 10:35:37;;;;;;;9.53;5.20;;;27.40;99.90;;;;;;1875252;75;21624;-76
2023/05/12 10:38:15;;;;;;;6.70;5.62;;;27.40;99.90;;;;;;1804934;79;21098;-76
2023/05/12 10:40:57;;;;;;;6.83;4.67;;;27.40;99.90;;;;;;1835083;76;21482;-76
2023/05/12 10:43:28;;;;;;;7.12;4.47;;;27.40;99.90;;;;;;1803722;79;21063;-75
2023/05/12 10:46:17;;;;;;;6.62;4.78;;;27.40;99.90;;;;;;1844535;76;21154;-74
2023/05/12 10:48:56;;;;;;;5.97;5.17;;;27.40;99.90;;;;;;1805226;79;21291;-74
2023/05/12 10:51:32;;;;;;;10.63;5.37;;;27.40;99.90;;;;;;1790719;79;21127;-75
2023/05/12 10:54:04;;;;;;;10.45;6.08;;;27.40;99.90;;;;;;1869084;75;21583;-75
2023/05/12 10:56:40;;;;;;;7.22;5.20;;;27.40;99.90;;;;;;1864171;76;21607;-75
2023/05/12 10:59:15;;;;;;;9.05;5.45;;;27.40;99.90;;;;;;1861934;75;21232;-75
2023/05/12 11:02:15;;;;;;;10.20;6.23;;;27.40;99.90;;;;;;1828860;77;21094;-74
2023/05/12 11:04:55;;;;;;;8.33;5.00;;;27.40;99.90;;;;;;1866832;75;21129;-74
2023/05/12 11:07:31;;;;;;;6.42;5.33;;;27.40;99.90;;;;;;1864714;75;21181;-75
2023/05/12 11:10:04;;;;;;;12.78;8.58;;;27.30;99.90;;;;;;1866025;75;21067;-75
2023/05/12 11:12:37;;;;;;;14.85;9.95;;;27.30;99.90;;;;;;1828087;77;21222;-75
2023/05/12 11:15:09;;;;;;;20.92;16.95;;;27.30;99.90;;;;;;1828025;76;21831;-73
2023/05/12 11:17:41;;;;;;;11.03;7.30;;;27.20;99.90;;;;;;1860636;77;21135;-75
2023/05/12 11:20:14;;;;;;;15.35;6.75;;;27.20;99.90;;;;;;1863233;75;21135;-75
2023/05/12 11:22:45;;;;;;;9.38;5.35;;;27.20;99.90;;;;;;1871227;75;21111;-76
2023/05/12 11:25:17;;;;;;;7.90;4.83;;;27.20;99.90;;;;;;1873681;76;21135;-75
2023/05/12 11:27:50;;;;;;;8.28;5.87;;;27.20;99.90;;;;;;1864402;75;21115;-75
2023/05/12 11:30:21;;;;;;;10.78;6.35;;;27.20;99.90;;;;;;1861370;76;21127;-75
2023/05/12 11:33:03;;;;;;;10.38;6.83;;;27.20;99.90;;;;;;1868838;75;21155;-74
2023/05/12 11:35:34;;;;;;;10.45;7.08;;;27.20;99.90;;;;;;1880345;76;21159;-74
2023/05/12 11:38:08;;;;;;;11.38;7.72;;;27.20;99.90;;;;;;1880313;75;21118;-76
2023/05/12 11:40:40;;;;;;;9.78;6.72;;;27.20;99.90;;;;;;1876464;76;21225;-74
2023/05/12 11:43:13;;;;;;;11.63;7.33;;;27.20;99.90;;;;;;1863874;75;21173;-75
2023/05/12 11:45:45;;;;;;;9.20;6.35;;;27.20;99.90;;;;;;1883204;76;21083;-76
2023/05/12 11:48:16;;;;;;;9.08;6.42;;;27.20;99.90;;;;;;1876846;75;21166;-75
2023/05/12 11:50:48;;;;;;;12.85;6.62;;;27.30;99.90;;;;;;1883139;76;21211;-75
2023/05/12 11:53:19;;;;;;;9.40;6.70;;;27.30;99.90;;;;;;1877008;75;21095;-75
2023/05/12 11:55:52;;;;;;;11.10;6.53;;;27.30;99.90;;;;;;1814895;79;21499;-74
2023/05/12 11:58:30;;;;;;;15.30;8.03;;;27.30;99.90;;;;;;1859091;75;21050;-74
2023/05/12 12:00:59;;;;;;;12.33;7.55;;;27.30;99.90;;;;;;1871974;76;21175;-75
2023/05/12 12:03:30;;;;;;;10.48;7.35;;;27.30;99.90;;;;;;1874061;75;21185;-75
2023/05/12 12:06:05;;;;;;;13.00;8.90;;;27.30;99.90;;;;;;1872352;75;21115;-75
2023/05/12 12:08:39;;;;;;;11.57;9.10;;;27.30;99.90;;;;;;1871382;75;21122;-73
2023/05/12 12:11:10;;;;;;;11.90;9.65;;;27.30;99.90;;;;;;1879301;76;21103;-73
2023/05/12 12:13:43;;;;;;;16.05;10.32;;;27.30;99.90;;;;;;1871347;75;21697;-84
2023/05/12 12:16:14;;;;;;;16.67;11.30;;;27.30;99.90;;;;;;1877223;75;21202;-87
2023/05/12 12:18:46;;;;;;;12.73;11.10;;;27.30;99.90;;;;;;1878139;74;21284;-85
2023/05/12 12:21:30;;;;;;;14.45;10.08;;;27.30;99.90;;;;;;1869254;76;21103;-85
2023/05/12 12:24:01;;;;;;;13.00;10.15;;;27.30;99.90;;;;;;1874610;74;21121;-86
2023/05/12 12:26:35;;;;;;;15.58;10.70;;;27.30;99.90;;;;;;1876759;74;21578;-84
2023/05/12 12:29:08;;;;;;;15.35;11.38;;;27.30;99.90;;;;;;1864047;75;21136;-84
2023/05/12 12:31:39;;;;;;;12.75;10.72;;;27.30;99.90;;;;;;1870333;74;21151;-85
2023/05/12 12:34:10;;;;;;;14.47;10.13;;;27.30;99.90;;;;;;1874737;74;21295;-84
2023/05/12 12:36:41;;;;;;;14.80;10.80;;;27.30;99.90;;;;;;1807133;79;21230;-84
2023/05/12 12:39:12;;;;;;;14.83;11.22;;;27.30;99.90;;;;;;1817571;77;21163;-84
2023/05/12 12:41:43;;;;;;;17.62;12.55;;;27.30;99.90;;;;;;1810858;78;21225;-86
2023/05/12 12:44:14;;;;;;;16.25;11.75;;;27.30;99.90;;;;;;1818391;77;21139;-85
2023/05/12 12:46:45;;;;;;;17.02;12.18;;;27.30;99.90;;;;;;1864881;74;21141;-84
2023/05/12 12:49:16;;;;;;;17.65;13.93;;;27.30;99.90;;;;;;1862448;75;21645;-84
2023/05/12 12:51:47;;;;;;;15.38;12.03;;;27.30;99.90;;;;;;1858968;76;21148;-84
2023/05/12 12:54:18;;;;;;;14.38;12.00;;;27.30;99.90;;;;;;1798169;78;21173;-84
2023/05/12 12:56:49;;;;;;;16.85;12.13;;;27.20;99.90;;;;;;1849511;77;21161;-84
2023/05/12 12:59:22;;;;;;;14.90;10.95;;;27.20;99.90;;;;;;1774468;79;21103;-86
2023/05/12 13:02:03;;;;;;;;;;;;;;;;;;;;;
2023/05/12 13:04:27;;;;;;;20.17;12.45;;;27.20;99.90;;;;;;1772849;80;21133;-86
2023/05/12 13:06:58;;;;;;;17.37;12.73;;;27.20;99.90;;;;;;1850099;77;21161;-85
2023/05/12 13:09:29;;;;;;;15.20;11.43;;;27.20;99.90;;;;;;1786200;79;21171;-86